Crew | Aerofun Virtual



 METAR AND TAF INFORMATION
METAR FOR ESNU
ADDS - METARS form results

(0320 UTC 23 September 2019)
Data provider http://aviationweather.gov/metar/data/
 
METAR text: ESNU 230250Z 34004KT CAVOK M01/M01 Q1025
Conditions at: ESNU (UMEA AIRPORT , SE) observed 0250 UTC 23 September 2019
Temperature: -1.0°C (30°F)
Dewpoint: -1.0°C (30°F) [RH = 100%]
Pressure (altimeter): 30.27 inches Hg (1025.0 mb)
Winds: from the NNW (340 degrees) at 5 MPH (4 knots; 2.1 m/s)
Visibility: 6 or more miles (10+ km)
Ceiling: ceiling and visibility are OK
Clouds: unknown
Weather: no significant weather observed at this time

Forecast for: ESNU (UMEA AIRPORT , SE)
Text: TAF ESNU 230230Z 2303/2312 35004KT CAVOK
Forecast period: 0300 to 1200 UTC 23 September 2019
Forecast type: FROM: standard forecast or significant change
Winds: from the N (350 degrees) at 5 MPH (4 knots; 2.1 m/s)
Visibility: 6 or more miles 10+ km)
Ceiling: unknown
Clouds: missing
Weather: NSW  (no significant weather)

 AIRPORT MAP

 RUNWAY INFORMATION
Runway 14 Runway length 7551 ft Runway width 148 ft
Runway elevation 24 ft Runway displaced threshold 0 ft Runway heading 138
Runway 32 Runway length 7551 ft Runway width 148 ft
Runway elevation 17 ft Runway displaced threshold 196 ft Runway heading 318

 AIRPORT FREQUENCIES
Type TWR Name TWR Frequency 119.8 MHZ

 AIRPORT NEAR NAVIGATION AIDS
Type VOR-DME Name Umea Frequency 114100 KHZ